Time;durP1;ratioP1;P1;durP2;ratioP2;P2;SDS_P1;SDS_P2;PMS_P1;PMS_P2;Temp;Humidity;BMP_temperature;BMP_pressure;BME280_temperature;BME280_humidity;BME280_pressure;Samples;Min_cycle;Max_cycle;Signal;HPM_P1;HPM_P2
2022/03/17 00:02:24;;;;;;;;;;;;;;;11.06;40.98;100585.81;4484019;31;35445;-63
2022/03/17 00:04:52;;;;;;;;;;;;;;;11.37;40.21;100590.06;4484782;31;33919;-63
2022/03/17 00:07:20;;;;;;;;;;;;;;;11.34;40.35;100590.25;4482888;31;35361;-64
2022/03/17 00:09:48;;;;;;;;;;;;;;;11.34;39.90;100590.25;4483372;31;34251;-64
2022/03/17 00:12:16;;;;;;;;;;;;;;;11.03;40.91;100599.37;4487196;31;32735;-64
2022/03/17 00:14:43;;;;;;;;;;;;;;;10.93;39.72;100599.09;4494803;31;31616;-64
2022/03/17 00:17:11;;;;;;;;;;;;;;;10.78;41.01;100608.09;4476812;31;32941;-64
2022/03/17 00:19:39;;;;;;;;;;;;;;;10.73;41.18;100614.59;4484219;31;34043;-64
2022/03/17 00:22:09;;;;;;;;;;;;;;;10.72;41.54;100610.22;4484557;31;32926;-63
2022/03/17 00:24:36;;;;;;;;;;;;;;;10.92;41.15;100602.75;4491173;31;32360;-65
2022/03/17 00:27:05;;;;;;;;;;;;;;;10.99;40.68;100604.09;4483581;32;34312;-63
2022/03/17 00:29:33;;;;;;;;;;;;;;;11.19;40.28;100601.00;4485872;31;33530;-64
2022/03/17 00:32:01;;;;;;;;;;;;;;;11.17;39.72;100605.59;4492117;31;33177;-64
2022/03/17 00:34:29;;;;;;;;;;;;;;;11.03;39.85;100608.28;4495684;31;32014;-64
2022/03/17 00:36:57;;;;;;;;;;;;;;;11.24;39.64;100607.91;4485870;31;33400;-64
2022/03/17 00:39:25;;;;;;;;;;;;;;;10.78;40.79;100614.31;4482051;31;34298;-64
2022/03/17 00:41:52;;;;;;;;;;;;;;;10.70;40.93;100598.72;4489038;31;34048;-63
2022/03/17 00:44:20;;;;;;;;;;;;;;;11.12;39.94;100610.37;4486566;31;33204;-66
2022/03/17 00:46:48;;;;;;;;;;;;;;;10.91;40.38;100601.00;4483407;31;34122;-66
2022/03/17 00:49:16;;;;;;;;;;;;;;;11.28;39.40;100612.09;4482765;31;33194;-65
2022/03/17 00:51:45;;;;;;;;;;;;;;;11.08;40.26;100610.69;4491885;31;34228;-63
2022/03/17 00:54:12;;;;;;;;;;;;;;;11.04;40.69;100596.59;4490776;31;32476;-63
2022/03/17 00:56:41;;;;;;;;;;;;;;;11.03;40.95;100600.25;4485037;31;34266;-63
2022/03/17 00:59:08;;;;;;;;;;;;;;;11.02;40.01;100605.72;4494899;31;34141;-65
2022/03/17 01:01:35;;;;;;;;;;;;;;;11.25;39.34;100620.31;4482872;31;33898;-65
2022/03/17 01:04:04;;;;;;;;;;;;;;;11.30;39.39;100616.41;4489024;31;31708;-64
2022/03/17 01:06:31;;;;;;;;;;;;;;;10.93;40.35;100616.03;4481444;31;34299;-64
2022/03/17 01:08:59;;;;;;;;;;;;;;;10.87;40.73;100623.59;4482085;31;34232;-63
2022/03/17 01:11:27;;;;;;;;;;;;;;;11.04;40.51;100617.16;4486878;31;35148;-65
2022/03/17 01:13:54;;;;;;;;;;;;;;;11.44;39.88;100620.88;4482755;31;32268;-65
2022/03/17 01:16:21;;;;;;;;;;;;;;;11.71;39.64;100622.72;4481956;31;34060;-65
2022/03/17 01:18:49;;;;;;;;;;;;;;;11.80;39.08;100622.97;4483993;31;34138;-66
2022/03/17 01:21:18;;;;;;;;;;;;;;;11.85;38.80;100630.75;4489871;31;33971;-65
2022/03/17 01:23:45;;;;;;;;;;;;;;;12.01;38.27;100626.09;4493675;31;32445;-66
2022/03/17 01:26:13;;;;;;;;;;;;;;;11.92;38.65;100621.34;4485837;31;34800;-64
2022/03/17 01:28:41;;;;;;;;;;;;;;;11.95;38.43;100626.50;4482455;31;33309;-66
2022/03/17 01:31:10;;;;;;;;;;;;;;;11.92;38.22;100618.66;4482025;31;34066;-66
2022/03/17 01:33:38;;;;;;;;;;;;;;;11.76;38.88;100617.91;4484913;31;32895;-65
2022/03/17 01:36:05;;;;;;;;;;;;;;;11.70;38.97;100624.53;4482423;31;32789;-67
2022/03/17 01:38:33;;;;;;;;;;;;;;;11.14;40.43;100619.19;4485667;31;34239;-65
2022/03/17 01:41:01;;;;;;;;;;;;;;;11.66;38.97;100621.19;4481957;31;33960;-64
2022/03/17 01:43:29;;;;;;;;;;;;;;;11.46;39.92;100621.66;4481624;31;33125;-65
2022/03/17 01:45:56;;;;;;;;;;;;;;;11.09;41.34;100620.44;4482677;31;34316;-66
2022/03/17 01:48:24;;;;;;;;;;;;;;;11.33;40.91;100620.69;4494842;31;34310;-66
2022/03/17 01:50:53;;;;;;;;;;;;;;;11.40;40.51;100617.53;4488972;31;34133;-66
2022/03/17 01:53:21;;;;;;;;;;;;;;;11.50;40.08;100617.78;4498570;31;34212;-65
2022/03/17 01:55:49;;;;;;;;;;;;;;;11.01;41.53;100622.72;4493983;31;34586;-65
2022/03/17 01:58:17;;;;;;;;;;;;;;;11.00;41.71;100626.38;4489623;31;34669;-65
2022/03/17 02:00:48;;;;;;;;;;;;;;;11.35;40.59;100630.34;4494121;31;34236;-66
2022/03/17 02:03:19;;;;;;;;;;;;;;;11.05;41.38;100629.63;4493731;31;32913;-69
2022/03/17 02:05:50;;;;;;;;;;;;;;;10.92;40.71;100630.37;4488307;31;34805;-66
2022/03/17 02:08:19;;;;;;;;;;;;;;;11.14;40.36;100631.75;4484986;31;34275;-67
2022/03/17 02:13:35;;;;;;;;;;;;;;;11.46;39.17;100636.84;4489789;31;33219;-64
2022/03/17 02:16:04;;;;;;;;;;;;;;;11.18;40.12;100636.78;4490639;31;34941;-66
2022/03/17 02:18:32;;;;;;;;;;;;;;;11.36;39.82;100641.94;4482326;31;34111;-67
2022/03/17 02:21:01;;;;;;;;;;;;;;;11.41;39.69;100642.50;4486286;31;33914;-67
2022/03/17 02:26:19;;;;;;;;;;;;;;;11.42;38.99;100644.22;4480172;31;33779;-68
2022/03/17 02:28:48;;;;;;;;;;;;;;;11.57;38.51;100650.44;4471870;31;32936;-68
2022/03/17 02:31:17;;;;;;;;;;;;;;;11.33;38.52;100648.38;4499374;31;35190;-66
2022/03/17 02:33:47;;;;;;;;;;;;;;;11.45;38.40;100652.06;4485305;31;33319;-67
2022/03/17 02:36:16;;;;;;;;;;;;;;;11.41;38.53;100650.56;4483980;31;32770;-67
2022/03/17 02:38:45;;;;;;;;;;;;;;;10.98;39.03;100658.63;4484689;31;34103;-66
2022/03/17 02:41:21;;;;;;;;;;;;;;;11.18;39.02;100657.37;4484080;31;34551;-66
2022/03/17 02:43:52;;;;;;;;;;;;;;;10.83;40.79;100667.59;4488260;31;33495;-67
2022/03/17 02:46:22;;;;;;;;;;;;;;;11.11;39.71;100670.28;4491143;31;33316;-64
2022/03/17 02:48:55;;;;;;;;;;;;;;;10.71;41.04;100666.50;4491077;31;34338;-65
2022/03/17 02:51:25;;;;;;;;;;;;;;;10.85;40.45;100669.22;4485991;31;33425;-66
2022/03/17 02:53:54;;;;;;;;;;;;;;;11.11;39.36;100677.47;4485382;31;33540;-68
2022/03/17 02:56:23;;;;;;;;;;;;;;;11.28;39.14;100669.22;4492599;31;34398;-67
2022/03/17 02:58:51;;;;;;;;;;;;;;;11.00;40.59;100678.13;4488454;31;33833;-65
2022/03/17 03:01:19;;;;;;;;;;;;;;;11.22;40.04;100674.97;4483076;31;32835;-66
2022/03/17 03:03:50;;;;;;;;;;;;;;;10.99;40.73;100679.09;4490942;31;34668;-65
2022/03/17 03:06:20;;;;;;;;;;;;;;;10.47;42.33;100688.47;4483577;31;32860;-66
2022/03/17 03:08:48;;;;;;;;;;;;;;;10.39;42.64;100695.22;4491389;31;35069;-67
2022/03/17 03:11:17;;;;;;;;;;;;;;;10.71;41.61;100691.47;4484658;31;34765;-66
2022/03/17 03:13:46;;;;;;;;;;;;;;;10.49;42.58;100691.88;4487588;31;34459;-67
2022/03/17 03:16:15;;;;;;;;;;;;;;;10.94;41.22;100698.09;4486448;31;34474;-66
2022/03/17 03:18:44;;;;;;;;;;;;;;;11.05;40.93;100691.25;4481325;31;34265;-68
2022/03/17 03:21:15;;;;;;;;;;;;;;;11.00;40.98;100696.88;4484710;31;34233;-67
2022/03/17 03:23:44;;;;;;;;;;;;;;;11.14;40.30;100691.53;4489012;31;33405;-64
2022/03/17 03:26:13;;;;;;;;;;;;;;;10.89;40.95;100699.38;4482337;31;33992;-66
2022/03/17 03:28:42;;;;;;;;;;;;;;;11.01;40.52;100695.94;4481942;31;33703;-64
2022/03/17 03:31:12;;;;;;;;;;;;;;;10.95;40.90;100691.81;4485695;31;33857;-66
2022/03/17 03:33:41;;;;;;;;;;;;;;;10.61;42.07;100686.78;4489398;31;33005;-67
2022/03/17 03:39:10;;;;;;;;;;;;;;;10.28;43.09;100692.31;4484602;31;34087;-63
2022/03/17 03:41:40;;;;;;;;;;;;;;;10.00;42.96;100693.88;4481533;31;33979;-65
2022/03/17 03:44:14;;;;;;;;;;;;;;;9.23;44.37;100695.47;4491864;31;33932;-64
2022/03/17 03:46:44;;;;;;;;;;;;;;;8.81;45.36;100702.13;4486519;31;35002;-66
2022/03/17 03:49:13;;;;;;;;;;;;;;;8.61;45.81;100708.50;4481827;31;35275;-65
2022/03/17 03:51:41;;;;;;;;;;;;;;;8.45;46.43;100706.72;4481154;31;34121;-65
2022/03/17 03:54:15;;;;;;;;;;;;;;;8.89;45.48;100706.19;4485474;31;33121;-65
2022/03/17 03:56:54;;;;;;;;;;;;;;;9.02;44.57;100704.59;4482872;31;33825;-64
2022/03/17 03:59:26;;;;;;;;;;;;;;;8.85;45.15;100706.38;4489473;31;34290;-64
2022/03/17 04:01:57;;;;;;;;;;;;;;;8.74;45.39;100698.06;4482841;31;34520;-65
2022/03/17 04:04:27;;;;;;;;;;;;;;;9.35;43.53;100688.59;4486927;31;33553;-64
2022/03/17 04:06:58;;;;;;;;;;;;;;;9.44;43.11;100692.59;4488346;31;32956;-65
2022/03/17 04:09:28;;;;;;;;;;;;;;;9.41;43.20;100688.25;4488473;31;33273;-64
2022/03/17 04:11:57;;;;;;;;;;;;;;;9.56;42.81;100689.22;4478965;31;32433;-63
2022/03/17 04:14:26;;;;;;;;;;;;;;;9.74;42.44;100685.50;4489362;31;33397;-65
2022/03/17 04:16:55;;;;;;;;;;;;;;;10.01;41.75;100677.72;4483959;31;32761;-64
2022/03/17 04:19:26;;;;;;;;;;;;;;;10.13;41.34;100686.84;4484691;31;33439;-65
2022/03/17 04:21:55;;;;;;;;;;;;;;;10.30;40.84;100674.34;4487284;31;34001;-66
2022/03/17 04:24:28;;;;;;;;;;;;;;;10.34;40.62;100682.13;4492077;31;33474;-65
2022/03/17 04:27:01;;;;;;;;;;;;;;;9.90;40.92;100682.84;4482101;31;35013;-64
2022/03/17 04:29:28;;;;;;;;;;;;;;;9.73;41.50;100686.47;4483934;31;33750;-66
2022/03/17 04:31:58;;;;;;;;;;;;;;;9.89;41.54;100696.31;4485894;31;33890;-66
2022/03/17 04:34:28;;;;;;;;;;;;;;;9.84;41.11;100714.41;4488499;31;32603;-64
2022/03/17 04:36:56;;;;;;;;;;;;;;;9.66;41.03;100721.63;4481926;31;35253;-66
2022/03/17 04:39:26;;;;;;;;;;;;;;;9.38;41.22;100724.97;4489643;31;33288;-64
2022/03/17 04:41:55;;;;;;;;;;;;;;;9.06;42.66;100720.41;4482480;31;33443;-66
2022/03/17 04:44:26;;;;;;;;;;;;;;;9.33;41.67;100723.41;4480053;31;35110;-67
2022/03/17 04:46:55;;;;;;;;;;;;;;;9.32;41.63;100723.50;4481941;31;32752;-66
2022/03/17 04:49:24;;;;;;;;;;;;;;;9.57;41.01;100729.22;4486937;31;33189;-66
2022/03/17 04:51:56;;;;;;;;;;;;;;;9.57;40.94;100720.34;4488305;31;34060;-67
2022/03/17 04:54:25;;;;;;;;;;;;;;;9.78;40.73;100726.31;4481507;31;32516;-66
2022/03/17 04:56:54;;;;;;;;;;;;;;;9.86;40.22;100723.22;4490563;31;32751;-67
2022/03/17 04:59:23;;;;;;;;;;;;;;;9.41;41.63;100723.00;4485093;31;33212;-67
2022/03/17 05:01:52;;;;;;;;;;;;;;;10.02;40.46;100730.28;4488697;31;34974;-66
2022/03/17 05:04:21;;;;;;;;;;;;;;;10.12;39.74;100735.09;4481076;31;33156;-68
2022/03/17 05:06:50;;;;;;;;;;;;;;;9.90;40.22;100746.16;4483163;31;32858;-67
2022/03/17 05:09:19;;;;;;;;;;;;;;;10.02;39.65;100738.31;4482469;31;33129;-66
2022/03/17 05:11:49;;;;;;;;;;;;;;;9.75;39.54;100743.38;4483623;31;33081;-67
2022/03/17 05:14:24;;;;;;;;;;;;;;;9.84;39.85;100751.84;4483009;31;32516;-67
2022/03/17 05:16:52;;;;;;;;;;;;;;;10.35;38.88;100763.25;4487022;31;32979;-67
2022/03/17 05:19:21;;;;;;;;;;;;;;;10.58;37.32;100776.16;4482823;31;35119;-67
2022/03/17 05:21:50;;;;;;;;;;;;;;;10.30;37.42;100782.22;4485369;31;34045;-67
2022/03/17 05:24:18;;;;;;;;;;;;;;;10.07;37.99;100786.19;4467462;31;33242;-66
2022/03/17 05:26:47;;;;;;;;;;;;;;;10.11;38.19;100792.22;4482347;31;32779;-66
2022/03/17 05:29:15;;;;;;;;;;;;;;;9.99;38.88;100791.12;4493539;31;34118;-67
2022/03/17 05:31:43;;;;;;;;;;;;;;;10.56;37.26;100787.91;4481761;31;34019;-65
2022/03/17 05:34:12;;;;;;;;;;;;;;;10.67;37.41;100786.31;4489803;31;32135;-66
2022/03/17 05:36:41;;;;;;;;;;;;;;;10.67;37.16;100790.81;4486717;31;35266;-67
2022/03/17 05:39:09;;;;;;;;;;;;;;;10.45;37.94;100802.78;4479632;31;34267;-66
2022/03/17 05:41:37;;;;;;;;;;;;;;;10.92;37.18;100811.66;4480045;31;32762;-67
2022/03/17 05:44:07;;;;;;;;;;;;;;;10.77;37.99;100812.56;4486099;31;33043;-67
2022/03/17 05:46:35;;;;;;;;;;;;;;;10.74;37.76;100821.62;4483395;31;34285;-66
2022/03/17 05:49:04;;;;;;;;;;;;;;;11.16;36.40;100823.59;4481938;31;33420;-66
2022/03/17 05:51:32;;;;;;;;;;;;;;;11.28;36.26;100824.66;4478686;31;35295;-66
2022/03/17 05:54:01;;;;;;;;;;;;;;;11.59;35.22;100837.06;4483565;31;32948;-67
2022/03/17 05:56:30;;;;;;;;;;;;;;;11.52;35.96;100827.66;4480573;31;35267;-66
2022/03/17 05:59:05;;;;;;;;;;;;;;;11.60;36.01;100829.87;4491037;31;34725;-66
2022/03/17 06:01:42;;;;;;;;;;;;;;;11.35;36.23;100828.69;4485019;31;34172;-66
2022/03/17 06:04:31;;;;;;;;;;;;;;;11.64;35.91;100832.28;4483750;31;33486;-67
2022/03/17 06:07:00;;;;;;;;;;;;;;;11.76;36.03;100835.16;4482194;31;34027;-67
2022/03/17 06:09:28;;;;;;;;;;;;;;;11.52;36.07;100853.63;4489157;31;35503;-66
2022/03/17 06:11:57;;;;;;;;;;;;;;;11.69;35.99;100853.47;4486528;31;32750;-67
2022/03/17 06:14:27;;;;;;;;;;;;;;;12.03;35.92;100848.69;4481573;31;32505;-66
2022/03/17 06:16:56;;;;;;;;;;;;;;;12.30;35.28;100849.63;4480268;31;35963;-67
2022/03/17 06:19:26;;;;;;;;;;;;;;;12.43;35.03;100846.16;4484850;31;34290;-66
2022/03/17 06:21:55;;;;;;;;;;;;;;;12.58;35.04;100855.84;4486487;31;34249;-66
2022/03/17 06:24:25;;;;;;;;;;;;;;;12.74;34.59;100851.19;4486045;31;33188;-65
2022/03/17 06:26:53;;;;;;;;;;;;;;;12.05;34.58;100863.72;4482617;31;35286;-65
2022/03/17 06:29:21;;;;;;;;;;;;;;;12.93;33.51;100866.97;4482769;31;32930;-66
2022/03/17 06:31:49;;;;;;;;;;;;;;;13.39;32.81;100871.97;4481930;31;33645;-65
2022/03/17 06:34:18;;;;;;;;;;;;;;;12.99;33.20;100877.31;4486849;31;33440;-65
2022/03/17 06:36:47;;;;;;;;;;;;;;;12.70;33.12;100876.53;4485961;31;34079;-66
2022/03/17 06:39:16;;;;;;;;;;;;;;;12.54;33.28;100870.47;4490563;31;34108;-66
2022/03/17 06:41:45;;;;;;;;;;;;;;;12.63;33.37;100872.56;4480638;31;33904;-66
2022/03/17 06:44:14;;;;;;;;;;;;;;;12.56;33.61;100880.16;4484654;31;32993;-67
2022/03/17 06:46:43;;;;;;;;;;;;;;;12.06;34.80;100875.31;4486606;31;34138;-65
2022/03/17 06:49:12;;;;;;;;;;;;;;;11.55;35.24;100872.19;4480169;31;35524;-66
2022/03/17 06:51:40;;;;;;;;;;;;;;;10.95;36.48;100870.44;4481030;31;34118;-66
2022/03/17 06:54:09;;;;;;;;;;;;;;;10.63;37.80;100883.84;4482924;31;32237;-65
2022/03/17 06:56:37;;;;;;;;;;;;;;;10.51;37.53;100886.34;4483801;31;33856;-66
2022/03/17 06:59:05;;;;;;;;;;;;;;;9.66;37.37;100876.69;4486699;31;32863;-67
2022/03/17 07:01:34;;;;;;;;;;;;;;;9.37;38.89;100889.75;4488736;31;33768;-65
2022/03/17 07:04:02;;;;;;;;;;;;;;;9.60;38.42;100885.91;4482607;31;33318;-66
2022/03/17 07:06:31;;;;;;;;;;;;;;;9.16;38.63;100894.41;4481313;31;35660;-66
2022/03/17 07:08:59;;;;;;;;;;;;;;;9.52;38.39;100891.63;4484979;31;34322;-67
2022/03/17 07:11:28;;;;;;;;;;;;;;;9.13;38.97;100891.88;4481842;31;33778;-66
2022/03/17 07:13:56;;;;;;;;;;;;;;;8.68;40.52;100895.03;4485588;31;33075;-65
2022/03/17 07:16:25;;;;;;;;;;;;;;;8.12;41.78;100897.63;4492148;31;33665;-66
2022/03/17 07:18:53;;;;;;;;;;;;;;;7.85;42.85;100896.19;4483587;31;34945;-66
2022/03/17 07:21:22;;;;;;;;;;;;;;;8.30;42.22;100892.34;4480827;31;34168;-65
2022/03/17 07:23:50;;;;;;;;;;;;;;;8.09;43.07;100889.75;4483886;31;33222;-64
2022/03/17 07:26:18;;;;;;;;;;;;;;;7.90;43.22;100897.72;4486445;31;33917;-65
2022/03/17 07:28:48;;;;;;;;;;;;;;;8.10;43.22;100902.16;4484740;31;34053;-67
2022/03/17 07:31:17;;;;;;;;;;;;;;;8.48;42.59;100902.19;4483785;31;34022;-65
2022/03/17 07:33:49;;;;;;;;;;;;;;;8.99;41.94;100897.94;4485186;31;33464;-65
2022/03/17 07:36:19;;;;;;;;;;;;;;;9.52;40.34;100894.31;4493004;31;33974;-67
2022/03/17 07:38:51;;;;;;;;;;;;;;;9.79;40.65;100897.34;4481239;31;34435;-68
2022/03/17 07:41:20;;;;;;;;;;;;;;;9.50;40.97;100906.91;4438268;31;945014;-64
2022/03/17 07:43:47;;;;;;;;;;;;;;;9.03;41.76;100895.97;4487923;31;33964;-65
2022/03/17 07:46:20;;;;;;;;;;;;;;;9.48;41.06;100899.91;4484906;31;34150;-68
2022/03/17 07:48:52;;;;;;;;;;;;;;;10.64;38.98;100896.28;4489935;31;35309;-66
2022/03/17 07:51:24;;;;;;;;;;;;;;;11.28;37.20;100897.03;4483027;31;34611;-68
2022/03/17 07:53:51;;;;;;;;;;;;;;;10.42;38.26;100891.25;4486071;31;33107;-66
2022/03/17 07:56:20;;;;;;;;;;;;;;;10.80;37.79;100900.75;4489523;31;34343;-65
2022/03/17 07:58:48;;;;;;;;;;;;;;;10.22;39.01;100894.16;4482141;31;34465;-68
2022/03/17 08:01:18;;;;;;;;;;;;;;;10.20;39.20;100898.72;4485087;31;34141;-64
2022/03/17 08:03:47;;;;;;;;;;;;;;;10.74;38.57;100904.66;4486245;31;34530;-64
2022/03/17 08:06:16;;;;;;;;;;;;;;;10.52;39.18;100899.62;4469002;31;35384;-64
2022/03/17 08:08:46;;;;;;;;;;;;;;;12.16;35.69;100907.81;4485679;31;34278;-70
2022/03/17 08:11:25;;;;;;;;;;;;;;;12.48;34.71;100903.06;4490404;31;33994;-67
2022/03/17 08:14:12;;;;;;;;;;;;;;;12.64;34.52;100901.13;4485738;31;33120;-67
2022/03/17 08:16:50;;;;;;;;;;;;;;;12.80;34.65;100911.72;4486703;31;34125;-67
2022/03/17 08:19:22;;;;;;;;;;;;;;;12.87;34.54;100907.66;4490132;31;35125;-64
2022/03/17 08:21:56;;;;;;;;;;;;;;;13.08;34.47;100909.91;4485220;31;33855;-64
2022/03/17 08:24:28;;;;;;;;;;;;;;;11.93;36.40;100922.66;4482193;31;32168;-67
2022/03/17 08:26:59;;;;;;;;;;;;;;;12.86;34.98;100914.03;4481668;31;33941;-64
2022/03/17 08:29:29;;;;;;;;;;;;;;;11.59;36.92;100928.25;4483980;31;34290;-66
2022/03/17 08:32:00;;;;;;;;;;;;;;;11.99;37.00;100928.50;4484584;31;33606;-66
2022/03/17 08:34:33;;;;;;;;;;;;;;;11.25;38.08;100926.69;4485193;31;34199;-64
2022/03/17 08:37:03;;;;;;;;;;;;;;;11.06;38.48;100932.25;4485205;31;33650;-64
2022/03/17 08:39:34;;;;;;;;;;;;;;;11.39;38.49;100933.91;4494530;31;33060;-63
2022/03/17 08:42:03;;;;;;;;;;;;;;;11.63;37.69;100935.13;4468982;31;34562;-64
2022/03/17 08:44:34;;;;;;;;;;;;;;;10.91;39.14;100938.50;4485687;31;33220;-65
2022/03/17 08:49:53;;;;;;;;;;;;;;;10.92;39.27;100934.88;4483647;31;34945;-64
2022/03/17 08:52:22;;;;;;;;;;;;;;;11.34;38.69;100936.88;4484078;31;34951;-64
2022/03/17 08:54:54;;;;;;;;;;;;;;;11.69;38.42;100947.31;4486571;31;33388;-64
2022/03/17 08:57:24;;;;;;;;;;;;;;;11.35;38.64;100943.09;4486866;31;33872;-64
2022/03/17 08:59:58;;;;;;;;;;;;;;;11.58;38.00;100949.78;4482487;31;33514;-64
2022/03/17 09:02:27;;;;;;;;;;;;;;;11.46;38.37;100940.66;4484344;31;32515;-63
2022/03/17 09:04:59;;;;;;;;;;;;;;;11.04;39.12;100942.19;4487812;31;33320;-65
2022/03/17 09:07:30;;;;;;;;;;;;;;;11.59;38.69;100951.53;4486976;31;34882;-64
2022/03/17 09:10:01;;;;;;;;;;;;;;;11.89;38.13;100943.47;4491506;31;33607;-64
2022/03/17 09:12:33;;;;;;;;;;;;;;;12.43;37.28;100948.19;4481762;31;34070;-64
2022/03/17 09:15:06;;;;;;;;;;;;;;;11.97;37.76;100945.66;4483032;31;32532;-64
2022/03/17 09:17:39;;;;;;;;;;;;;;;12.28;37.09;100958.91;4482562;31;33719;-64
2022/03/17 09:20:15;;;;;;;;;;;;;;;12.38;36.69;100945.75;4490739;31;32779;-64
2022/03/17 09:22:46;;;;;;;;;;;;;;;12.27;36.84;100948.28;4485566;31;34133;-64
2022/03/17 09:25:28;;;;;;;;;;;;;;;12.33;36.79;100945.22;4487069;31;32453;-64
2022/03/17 09:28:03;;;;;;;;;;;;;;;12.02;37.35;100943.56;4488472;31;32802;-64
2022/03/17 09:30:35;;;;;;;;;;;;;;;11.06;39.18;100960.88;4482227;31;34412;-65
2022/03/17 09:33:10;;;;;;;;;;;;;;;11.78;38.16;100951.25;4483057;31;32805;-63
2022/03/17 09:35:40;;;;;;;;;;;;;;;11.67;37.48;100957.28;4483735;31;33371;-64
2022/03/17 09:38:11;;;;;;;;;;;;;;;11.97;37.13;100957.25;4488907;31;34850;-65
2022/03/17 09:40:42;;;;;;;;;;;;;;;12.14;36.85;100953.53;4481350;31;34582;-65
2022/03/17 09:43:21;;;;;;;;;;;;;;;12.24;36.52;100949.31;4482881;31;34225;-64
2022/03/17 09:45:53;;;;;;;;;;;;;;;12.22;36.21;100953.06;4490305;31;33223;-63
2022/03/17 09:48:25;;;;;;;;;;;;;;;11.43;37.29;100956.94;4482500;31;33895;-65
2022/03/17 09:51:00;;;;;;;;;;;;;;;11.32;37.78;100962.03;4483226;31;34402;-64
2022/03/17 09:53:33;;;;;;;;;;;;;;;11.51;37.62;100954.63;4474589;31;33449;-65
2022/03/17 09:56:07;;;;;;;;;;;;;;;12.25;36.42;100960.91;4486118;31;33199;-65
2022/03/17 09:58:40;;;;;;;;;;;;;;;12.80;35.51;100954.72;4485208;31;34921;-64
2022/03/17 10:01:11;;;;;;;;;;;;;;;12.68;35.00;100951.03;4489053;31;34048;-64
2022/03/17 10:03:45;;;;;;;;;;;;;;;12.44;36.05;100957.94;4481838;31;33894;-64
2022/03/17 10:06:20;;;;;;;;;;;;;;;12.47;36.26;100963.13;4469002;31;32234;-64
2022/03/17 10:08:54;;;;;;;;;;;;;;;12.61;35.81;100946.97;4479247;31;34371;-65
2022/03/17 10:11:30;;;;;;;;;;;;;;;12.25;36.46;100951.03;4484028;31;33978;-64
2022/03/17 10:14:05;;;;;;;;;;;;;;;12.38;36.43;100947.59;4483151;31;34317;-65
2022/03/17 10:16:41;;;;;;;;;;;;;;;12.49;36.06;100945.09;4484152;31;32356;-65
2022/03/17 10:19:14;;;;;;;;;;;;;;;12.42;36.33;100941.91;4483693;31;34190;-65
2022/03/17 10:21:52;;;;;;;;;;;;;;;12.90;35.81;100946.91;4489224;31;34344;-64
2022/03/17 10:24:25;;;;;;;;;;;;;;;13.63;34.72;100944.72;4484802;31;33062;-64
2022/03/17 10:26:59;;;;;;;;;;;;;;;13.78;34.02;100947.34;4485392;31;33588;-63
2022/03/17 10:29:33;;;;;;;;;;;;;;;12.84;35.83;100950.88;4489150;31;34967;-64
2022/03/17 10:32:14;;;;;;;;;;;;;;;12.74;35.93;100947.06;4486976;31;34249;-64
2022/03/17 10:34:49;;;;;;;;;;;;;;;13.96;34.13;100943.34;4486087;31;34022;-65
2022/03/17 10:37:20;;;;;;;;;;;;;;;14.06;33.70;100940.88;4484857;31;33658;-64
2022/03/17 10:39:54;;;;;;;;;;;;;;;13.08;34.78;100956.47;4485516;31;34268;-64
2022/03/17 10:42:29;;;;;;;;;;;;;;;13.43;34.53;100945.22;4484257;31;32959;-65
2022/03/17 10:45:05;;;;;;;;;;;;;;;13.23;35.41;100943.84;4490906;31;34100;-64
2022/03/17 10:47:42;;;;;;;;;;;;;;;13.71;33.71;100954.97;4494039;31;34379;-64
2022/03/17 10:50:17;;;;;;;;;;;;;;;12.63;36.18;100953.13;4485481;31;35248;-63
2022/03/17 10:52:52;;;;;;;;;;;;;;;12.83;35.23;100955.37;4484286;31;34168;-64
2022/03/17 10:55:28;;;;;;;;;;;;;;;13.02;34.95;100954.19;4488020;31;34992;-63
2022/03/17 10:58:14;;;;;;;;;;;;;;;13.03;34.94;100955.91;4492100;31;34135;-63
2022/03/17 11:00:56;;;;;;;;;;;;;;;13.50;34.40;100951.91;4486380;31;35276;-64
2022/03/17 11:03:28;;;;;;;;;;;;;;;13.02;34.80;100956.88;4484192;31;33839;-64
2022/03/17 11:06:01;;;;;;;;;;;;;;;12.81;34.91;100962.69;4482135;31;34516;-63
2022/03/17 11:08:38;;;;;;;;;;;;;;;13.00;35.12;100966.84;4485263;31;32520;-63
2022/03/17 11:11:08;;;;;;;;;;;;;;;13.02;35.05;100963.09;4484647;31;32728;-63
2022/03/17 11:13:39;;;;;;;;;;;;;;;13.15;35.25;100970.38;4482282;31;33110;-63
2022/03/17 11:16:12;;;;;;;;;;;;;;;13.15;35.18;100965.84;4482173;31;33790;-65
2022/03/17 11:18:45;;;;;;;;;;;;;;;12.63;35.92;100979.13;4482958;31;32291;-64
2022/03/17 11:21:16;;;;;;;;;;;;;;;13.37;34.79;100967.16;4471576;31;33718;-65
2022/03/17 11:24:01;;;;;;;;;;;;;;;13.52;34.45;100968.81;4483758;31;35516;-63
2022/03/17 11:26:34;;;;;;;;;;;;;;;13.59;34.41;100975.50;4484612;31;35321;-63
2022/03/17 11:29:05;;;;;;;;;;;;;;;13.92;33.82;100972.31;4492972;31;33430;-63
2022/03/17 11:32:02;;;;;;;;;;;;;;;13.94;33.56;100972.22;4486234;31;33533;-62
2022/03/17 11:34:46;;;;;;;;;;;;;;;12.88;36.17;100967.66;4482979;31;33845;-69
2022/03/17 11:37:18;;;;;;;;;;;;;;;13.46;35.31;100966.53;4482877;31;32663;-65
2022/03/17 11:39:52;;;;;;;;;;;;;;;13.61;35.94;100967.31;4484071;31;33689;-64
2022/03/17 11:42:30;;;;;;;;;;;;;;;13.66;34.46;100966.03;4483054;31;34077;-65
2022/03/17 11:45:09;;;;;;;;;;;;;;;13.47;35.45;100968.25;4482881;31;34147;-62
2022/03/17 11:47:43;;;;;;;;;;;;;;;13.47;35.70;100973.63;4490463;31;34183;-63
2022/03/17 11:50:45;;;;;;;;;;;;;;;13.95;34.91;100972.09;4488516;31;33664;-64
2022/03/17 11:53:20;;;;;;;;;;;;;;;13.71;35.30;100976.50;4487699;31;34029;-63
2022/03/17 11:55:56;;;;;;;;;;;;;;;13.95;34.58;100971.25;4481938;31;33749;-63
2022/03/17 11:58:40;;;;;;;;;;;;;;;13.34;36.21;100975.41;4484345;31;34977;-63
2022/03/17 12:01:11;;;;;;;;;;;;;;;13.71;35.74;100968.41;4487762;31;37325;-64
2022/03/17 12:03:41;;;;;;;;;;;;;;;14.17;34.48;100968.78;4487134;31;35287;-63
2022/03/17 12:06:21;;;;;;;;;;;;;;;13.16;36.13;100969.37;4488017;31;33155;-62
2022/03/17 12:08:51;;;;;;;;;;;;;;;13.62;35.90;100966.34;4486146;31;33802;-64
2022/03/17 12:11:28;;;;;;;;;;;;;;;13.38;36.41;100958.97;4486131;31;33447;-65
2022/03/17 12:14:14;;;;;;;;;;;;;;;14.32;34.02;100961.44;4486193;31;34267;-64
2022/03/17 12:16:48;;;;;;;;;;;;;;;14.52;33.72;100956.50;4482907;31;34734;-64
2022/03/17 12:19:24;;;;;;;;;;;;;;;13.96;34.58;100963.06;4487932;31;34593;-64
2022/03/17 12:22:04;;;;;;;;;;;;;;;14.50;33.95;100959.25;4481363;31;33821;-65
2022/03/17 12:24:45;;;;;;;;;;;;;;;14.15;34.03;100959.94;4477931;31;34382;-62
2022/03/17 12:27:14;;;;;;;;;;;;;;;14.50;33.86;100958.41;4486421;31;34599;-64
2022/03/17 12:29:46;;;;;;;;;;;;;;;14.17;34.36;100955.31;4485277;31;32828;-65
2022/03/17 12:32:18;;;;;;;;;;;;;;;14.21;34.53;100959.50;4485867;31;33399;-63
2022/03/17 12:34:50;;;;;;;;;;;;;;;13.74;34.50;100960.13;4490520;31;33787;-63
2022/03/17 12:37:22;;;;;;;;;;;;;;;13.42;34.62;100956.97;4483174;31;33188;-65
2022/03/17 12:39:55;;;;;;;;;;;;;;;14.38;33.49;100946.66;4480490;31;34365;-64
2022/03/17 12:42:27;;;;;;;;;;;;;;;14.17;32.62;100951.75;4492906;31;31723;-64
2022/03/17 12:44:59;;;;;;;;;;;;;;;12.88;35.38;100954.22;4482303;31;32869;-65
2022/03/17 12:47:33;;;;;;;;;;;;;;;13.88;34.23;100964.56;4482281;31;35184;-64
2022/03/17 12:50:12;;;;;;;;;;;;;;;14.62;33.67;100958.41;4486101;31;34032;-63
2022/03/17 12:52:43;;;;;;;;;;;;;;;14.86;32.54;100949.50;4488048;31;33140;-63
2022/03/17 12:55:13;;;;;;;;;;;;;;;14.59;32.79;100961.31;4490988;31;33812;-64
2022/03/17 12:57:43;;;;;;;;;;;;;;;14.39;33.01;100962.72;4488130;31;35354;-63
2022/03/17 13:00:14;;;;;;;;;;;;;;;14.37;33.64;100964.66;4485824;31;33745;-63
2022/03/17 13:02:44;;;;;;;;;;;;;;;14.09;34.04;100952.31;4489242;31;34132;-63
2022/03/17 13:08:05;;;;;;;;;;;;;;;14.04;33.26;100961.66;4483107;31;34181;-63
2022/03/17 13:16:14;;;;;;;;;;;;;;;14.21;33.00;100958.63;4478526;31;34284;-64
2022/03/17 13:18:44;;;;;;;;;;;;;;;13.50;33.90;100963.50;4481682;31;33917;-64